KACJ

Jimmy Carter Regional Airport

Americus, Georgia, USA
METAR KACJ 230955Z AUTO 00000KT 10SM CLR 16/13 A3039 RMK AO2
Observed Flight Rules
Feb-23 @ 09:55 UTC (32 minutes ago) Visual Flight Rules
Wind Visibility Clouds
Calm 10 miles
  • Clear skies
Temperatures Readings
Current 16°C / 61°F
Dewpoint 13°C / 55°F
Humidity 83%
Altimeter 30.39" Hg
Pressure 1029 hPa
Elevation 143
METAR KACJ 230955Z AUTO 00000KT 10SM CLR 16/13 A3039 RMK AO2
Observed Flight Rules
Feb-23 @ 09:55 UTC
(32 minutes ago)
VFR
Wind Visibility
Calm 10 miles
Clouds
  • Clear skies
Temperature Dewpoint
16°C / 61°F 13°C / 55°F
Humidity Altimeter Pressure
83% 30.39" Hg 1029 hPa